SIA26 EDDF-KJFK
Flight info
| Callsign | SIA26 |
|---|---|
| Flight time | N/A |
| Altitude | 34000 |
| Route | OBOKA5G/25C OBOKA Z28 DIBIR DCT BUDIP DCT RAVLO Y70 OTBED DCT ABLUC DCT OZRAT DCT WETFI DCT REVNU DCT RESNO/M082F340 DCT 5620N DCT 5630N DCT 5640N DCT 5550N DCT LOMSI/N0484F340 N670A QUBIS DCT ENE PARCH4 |
| Aircraft | B77W/H-SDE1E2E3FGHIJ2J3J4J5M1RWXYZ/LB1D1 |
Departure
| Time | 2026-05-04 17:00 |
|---|---|
| Airport | Frankfurt Main Airport (EDDF) |
Arrival
| Time | N/A |
|---|---|
| Airport | John F. Kennedy International Airport (KJFK) |
| Time | Latitude | Longitude | Altitude | Speed | Heading |
|---|---|---|---|---|---|
| 2026-05-04 16:37 | 50.04749 | 8.57454 | 361 ft | 0 kts | 45° |
| 2026-05-04 16:49 | 50.04727 | 8.57425 | 369 ft | 4 kts | 27° |
| 2026-05-04 16:49 | 50.04676 | 8.57414 | 364 ft | 4 kts | 337° |
| 2026-05-04 16:50 | 50.04636 | 8.57452 | 364 ft | 4 kts | 347° |
| 2026-05-04 16:50 | 50.04593 | 8.57423 | 368 ft | 4 kts | 61° |
| 2026-05-04 16:51 | 50.04575 | 8.57345 | 365 ft | 4 kts | 72° |
| 2026-05-04 16:51 | 50.04572 | 8.57332 | 366 ft | 1 kts | 69° |
| 2026-05-04 16:53 | 50.04594 | 8.57423 | 368 ft | 7 kts | 70° |
| 2026-05-04 16:54 | 50.04583 | 8.57490 | 367 ft | 7 kts | 141° |
| 2026-05-04 16:55 | 50.04536 | 8.57531 | 369 ft | 0 kts | 153° |
| 2026-05-04 16:55 | 50.04535 | 8.57532 | 369 ft | 1 kts | 153° |
| 2026-05-04 16:56 | 50.04468 | 8.57603 | 372 ft | 8 kts | 122° |
| 2026-05-04 16:56 | 50.04514 | 8.57898 | 374 ft | 13 kts | 69° |
| 2026-05-04 16:57 | 50.04545 | 8.58030 | 373 ft | 13 kts | 70° |
| 2026-05-04 16:57 | 50.04615 | 8.58322 | 376 ft | 15 kts | 69° |
| 2026-05-04 16:58 | 50.04578 | 8.58597 | 378 ft | 10 kts | 159° |
| 2026-05-04 16:58 | 50.04524 | 8.58628 | 378 ft | 7 kts | 166° |
| 2026-05-04 16:59 | 50.04444 | 8.58408 | 379 ft | 37 kts | 249° |
| 2026-05-04 17:00 | 50.03014 | 8.52507 | 992 ft | 196 kts | 251° |
| 2026-05-04 17:00 | 50.02840 | 8.46094 | 2569 ft | 226 kts | 278° |
| 2026-05-04 17:01 | 50.02621 | 8.40870 | 3476 ft | 256 kts | 260° |
| 2026-05-04 17:01 | 50.01967 | 8.35372 | 4852 ft | 265 kts | 258° |
| 2026-05-04 17:02 | 50.01291 | 8.29718 | 6405 ft | 265 kts | 259° |
| 2026-05-04 17:02 | 50.02313 | 8.24126 | 7593 ft | 281 kts | 291° |
| 2026-05-04 17:03 | 50.03144 | 8.21363 | 8307 ft | 280 kts | 290° |
| 2026-05-04 17:03 | 50.03952 | 8.18607 | 9053 ft | 280 kts | 290° |
| 2026-05-04 17:03 | 50.05576 | 8.13027 | 10257 ft | 288 kts | 290° |
| 2026-05-04 17:04 | 50.07983 | 8.07469 | 10614 ft | 334 kts | 306° |
| 2026-05-04 17:04 | 50.11162 | 8.01579 | 11148 ft | 371 kts | 306° |
| 2026-05-04 17:05 | 50.14511 | 7.95239 | 12552 ft | 384 kts | 306° |
| 2026-05-04 17:05 | 50.17857 | 7.88757 | 12653 ft | 386 kts | 306° |
| 2026-05-04 17:06 | 50.21240 | 7.82135 | 13368 ft | 395 kts | 306° |
| 2026-05-04 17:06 | 50.22962 | 7.78762 | 14184 ft | 399 kts | 306° |
| 2026-05-04 17:07 | 50.26862 | 7.72595 | 15537 ft | 412 kts | 330° |
| 2026-05-04 17:07 | 50.28612 | 7.71410 | 15948 ft | 413 kts | 337° |
| 2026-05-04 17:07 | 50.32240 | 7.69187 | 16787 ft | 422 kts | 334° |
| 2026-05-04 17:07 | 50.34945 | 7.67363 | 17598 ft | 424 kts | 333° |
| 2026-05-04 17:08 | 50.37648 | 7.65493 | 18377 ft | 427 kts | 333° |
| 2026-05-04 17:08 | 50.43151 | 7.61690 | 19550 ft | 438 kts | 333° |
| 2026-05-04 17:08 | 50.45951 | 7.59759 | 20175 ft | 442 kts | 333° |
| 2026-05-04 17:09 | 50.48782 | 7.57812 | 20851 ft | 444 kts | 333° |
| 2026-05-04 17:09 | 50.51621 | 7.55855 | 21491 ft | 447 kts | 333° |
| 2026-05-04 17:09 | 50.54488 | 7.53874 | 22087 ft | 452 kts | 333° |
| 2026-05-04 17:10 | 50.74697 | 7.33349 | 26004 ft | 467 kts | 315° |
| 2026-05-04 17:10 | 50.97418 | 6.82210 | 31124 ft | 477 kts | 300° |
| 2026-05-04 17:11 | 51.01117 | 6.73824 | 31983 ft | 474 kts | 300° |
| 2026-05-04 17:11 | 51.03881 | 6.67533 | 32587 ft | 472 kts | 300° |
| 2026-05-04 17:11 | 51.18892 | 6.32951 | 34056 ft | 482 kts | 299° |
| 2026-05-04 17:12 | 51.29563 | 6.08005 | 33844 ft | 475 kts | 298° |
| 2026-05-04 17:12 | 51.63249 | 5.44675 | 33972 ft | 466 kts | 307° |
| 2026-05-04 17:13 | 52.17716 | 4.49705 | 33895 ft | 480 kts | 308° |
| 2026-05-04 17:14 | 52.32400 | 4.23510 | 33987 ft | 466 kts | 307° |
| 2026-05-04 17:14 | 52.36788 | 4.15613 | 33970 ft | 467 kts | 307° |
| 2026-05-04 17:15 | 52.81076 | 3.13972 | 34100 ft | 451 kts | 284° |